Flight Track Log - Related Links

Times and Time Zones

All times are in EDT time to prevent confusion due to time zone crossing. See the USC191 flight status page for this flight to view local times or setup timezone preferences in your user account.

Time Position Orientation Groundspeed Altitude Reporting Facility
EDT Latitude Longitude Course Direction KTS MPH feet Rate Location/Type
Fri 04:07:21 AM 38.6167 -90.7167 218° Southwest 155 178 2,800  Level Gateway TRACON
Fri 04:08:13 AM 38.5922 -90.7464 224° Southwest 152 175 3,700 1,018 Climbing Kansas Center
Fri 04:09:13 AM 38.5597 -90.7817 220° Southwest 154 177 4,700 1,041 Climbing Kansas Center
Fri 04:10:14 AM 38.5281 -90.8200 223° Southwest 157 181 5,800 694 Climbing Kansas Center
Fri 04:11:14 AM 38.4967 -90.8606 225° Southwest 159 183 6,100 99 Climbing Kansas Center
Fri 04:12:15 AM 38.4556 -90.9050 220° Southwest 186 214 6,000 -50 Descending Kansas Center
Fri 04:13:15 AM 38.4083 -90.9619 223° Southwest 194 223 6,000  Level Kansas Center
Fri 04:14:16 AM 38.3678 -91.0106 223° Southwest 198 228 6,000  Level Kansas Center
Fri 04:15:16 AM 38.3289 -91.0567 223° Southwest 194 223 6,000  Level Kansas Center
Fri 04:16:17 AM 38.2889 -91.1044 223° Southwest 197 227 6,000  Level Kansas Center
Fri 04:17:17 AM 38.2469 -91.1522 222° Southwest 200 230 6,000  Level Kansas Center
Fri 04:18:18 AM 38.2058 -91.2003 223° Southwest 201 231 6,000  Level Kansas Center
Fri 04:19:18 AM 38.1656 -91.2483 223° Southwest 200 230 6,000  Level Kansas Center
Fri 04:20:19 AM 38.1283 -91.2950 225° Southwest 199 229 6,000  Level Kansas Center
Fri 04:21:19 AM 38.0869 -91.3436 223° Southwest 200 230 6,000  Level Kansas Center
Fri 04:22:20 AM 38.0453 -91.3900 221° Southwest 199 229 6,000  Level Kansas Center
Fri 04:23:21 AM 38.0033 -91.4386 222° Southwest 201 231 6,000  Level Kansas Center
Fri 04:24:21 AM 37.9639 -91.4878 225° Southwest 199 229 6,000  Level Kansas Center
Fri 04:25:22 AM 37.9228 -91.5353 222° Southwest 198 228 6,000  Level Kansas Center
Fri 04:26:22 AM 37.8811 -91.5831 222° Southwest 200 230 6,000  Level Kansas Center
Fri 04:27:23 AM 37.8417 -91.6311 224° Southwest 198 228 6,000  Level Kansas Center
Fri 04:28:23 AM 37.8008 -91.6783 222° Southwest 197 227 6,000  Level Kansas Center
Fri 04:29:24 AM 37.7597 -91.7244 222° Southwest 197 227 6,000  Level Kansas Center
Fri 04:30:25 AM 37.7197 -91.7711 223° Southwest 196 226 6,000  Level Kansas Center
Fri 04:31:25 AM 37.6792 -91.8178 222° Southwest 196 226 6,000  Level Kansas Center
Fri 04:32:26 AM 37.6397 -91.8653 224° Southwest 195 224 6,000  Level Kansas Center
Fri 04:33:26 AM 37.5997 -91.9106 222° Southwest 193 222 6,000  Level Kansas Center
Fri 04:34:27 AM 37.5592 -91.9567 222° Southwest 195 224 6,000  Level Kansas Center
Fri 04:35:27 AM 37.5200 -92.0031 223° Southwest 193 222 6,000  Level Kansas Center
Fri 04:36:28 AM 37.4800 -92.0492 222° Southwest 194 223 6,000  Level Kansas Center
Fri 04:37:28 AM 37.4394 -92.0942 221° Southwest 193 222 6,000  Level Kansas Center
Fri 04:38:29 AM 37.3997 -92.1406 223° Southwest 193 222 6,000  Level Kansas Center
Fri 04:39:30 AM 37.3586 -92.1861 221° Southwest 194 223 6,000  Level Kansas Center
Fri 04:40:30 AM 37.3183 -92.2333 223° Southwest 195 224 6,000  Level Kansas Center
Fri 04:41:31 AM 37.2789 -92.2797 223° Southwest 195 224 6,000  Level Kansas Center
Fri 04:42:31 AM 37.2383 -92.3258 222° Southwest 195 224 6,000  Level Kansas Center
Fri 04:43:32 AM 37.1981 -92.3708 222° Southwest 195 224 6,000  Level Kansas Center
Fri 04:44:33 AM 37.1494 -92.4264 222° Southwest 195 224 6,000  Level Kansas Center
Fri 04:45:33 AM 37.1092 -92.4722 222° Southwest 194 223 6,000  Level Kansas Center
Fri 04:46:34 AM 37.0689 -92.5178 222° Southwest 195 224 6,000  Level Kansas Center
Fri 04:47:34 AM 37.0283 -92.5633 222° Southwest 195 224 6,000  Level Kansas Center
Fri 04:48:35 AM 36.9872 -92.6097 222° Southwest 196 226 6,000  Level Kansas Center
Fri 04:49:36 AM 36.9475 -92.6542 222° Southwest 194 223 6,000  Level Kansas Center
Fri 04:50:36 AM 36.9075 -92.6997 222° Southwest 194 223 6,000  Level Kansas Center
Fri 04:51:37 AM 36.8692 -92.7464 224° Southwest 192 221 6,000  Level Kansas Center
Fri 04:52:38 AM 36.8300 -92.7886 221° Southwest 190 219 6,000  Level Kansas Center
Fri 04:53:38 AM 36.7903 -92.8300 220° Southwest 188 216 6,000  Level Kansas Center
Fri 04:54:39 AM 36.7514 -92.8758 223° Southwest 188 216 6,000  Level Kansas Center
Fri 04:55:39 AM 36.7114 -92.9206 222° Southwest 190 219 6,000  Level Kansas Center
Fri 04:56:40 AM 36.6722 -92.9647 222° Southwest 190 219 6,000  Level Kansas Center
Fri 04:57:41 AM 36.6322 -93.0064 220° Southwest 188 216 6,000  Level Kansas Center
Fri 04:58:41 AM 36.5936 -93.0503 222° Southwest 188 216 6,000  Level Kansas Center
Fri 04:59:42 AM 36.5553 -93.0947 223° Southwest 188 216 6,000  Level Kansas Center
Fri 05:00:42 AM 36.5203 -93.1294 219° Southwest 187 215 6,000  Level Kansas Center
Fri 05:01:43 AM 36.4819 -93.1700 220° Southwest 184 212 6,000  Level Kansas Center
Fri 05:02:44 AM 36.4358 -93.2203 221° Southwest 184 212 6,000  Level Kansas Center
Fri 05:03:44 AM 36.3989 -93.2650 224° Southwest 185 213 6,000  Level Kansas Center
Fri 05:04:45 AM 36.3594 -93.3056 220° Southwest 184 212 6,000  Level Kansas Center
Fri 05:05:45 AM 36.3208 -93.3503 223° Southwest 188 216 6,000 50 Level Kansas Center
Fri 05:06:46 AM 36.2833 -93.3919 222° Southwest 183 211 6,100 49 Climbing Kansas Center
Fri 05:07:47 AM 36.2453 -93.4331 221° Southwest 183 211 6,100  Level Kansas Center
Fri 05:08:47 AM 36.2069 -93.4753 222° Southwest 184 212 6,100  Level Kansas Center
Fri 05:09:48 AM 36.1675 -93.5178 221° Southwest 187 215 6,100  Level Kansas Center
Fri 05:10:48 AM 36.1292 -93.5603 222° Southwest 186 214 6,100 50 Level Kansas Center
Fri 05:11:49 AM 36.0911 -93.6025 222° Southwest 185 213 6,200 -47 Climbing Kansas Center
Fri 05:12:56 AM 36.0422 -93.6531 220° Southwest 188 216 6,000 -94 Descending Memphis Center
Fri 05:13:56 AM 36.0014 -93.6950 220° Southwest 188 216 6,000 50 Level Memphis Center
Fri 05:14:56 AM 35.9647 -93.7372 223° Southwest 188 216 6,100 50 Climbing Memphis Center
Fri 05:15:56 AM 35.9261 -93.7792 221° Southwest 188 216 6,100 -50 Level Memphis Center
Fri 05:16:56 AM 35.8875 -93.8211 221° Southwest 188 216 6,000 -50 Descending Memphis Center
Fri 05:17:56 AM 35.8489 -93.8631 221° Southwest 188 216 6,000 50 Level Memphis Center
Fri 05:18:56 AM 35.8100 -93.9047 221° Southwest 188 216 6,100  Climbing Memphis Center
Fri 05:19:56 AM 35.7714 -93.9467 221° Southwest 188 216 6,000 -50 Descending Memphis Center
Fri 05:20:56 AM 35.7325 -93.9886 221° Southwest 188 216 6,000 50 Level Memphis Center
Fri 05:21:56 AM 35.6917 -94.0300 219° Southwest 188 216 6,100 50 Climbing Memphis Center
Fri 05:22:56 AM 35.6633 -94.0722 230° Southwest 188 216 6,100  Level Memphis Center
Fri 05:23:56 AM 35.6161 -94.1161 217° Southwest 188 216 6,100  Level Memphis Center
Fri 05:24:56 AM 35.5753 -94.1553 218° Southwest 188 216 6,100 -50 Level Memphis Center
Fri 05:25:56 AM 35.5367 -94.1967 221° Southwest 188 216 6,000  Descending Memphis Center
Fri 05:26:56 AM 35.4997 -94.2383 223° Southwest 188 216 6,100 50 Climbing Memphis Center
Fri 05:27:56 AM 35.4589 -94.2797 220° Southwest 188 216 6,100  Level Memphis Center
Fri 05:28:56 AM 35.4222 -94.3189 221° Southwest 188 216 6,100 -50 Level Memphis Center
Fri 05:29:56 AM 35.3917 -94.3608 228° Southwest 182 209 6,000  Descending Memphis Center
Fri 05:30:56 AM 35.3444 -94.4017 215° Southwest 185 213 6,100 50 Climbing Memphis Center
Fri 05:31:56 AM 35.3056 -94.4406 219° Southwest 190 219 6,100  Level Memphis Center
Fri 05:32:56 AM 35.2667 -94.4819 221° Southwest 185 213 6,100  Level Memphis Center
Fri 05:33:56 AM 35.2319 -94.5233 224° Southwest 185 213 6,100  Level Memphis Center
Fri 05:34:56 AM 35.1931 -94.5622 219° Southwest 185 213 6,100 -50 Level Memphis Center
Fri 05:35:56 AM 35.1519 -94.6033 219° Southwest 185 213 6,000 -50 Descending Memphis Center
Fri 05:36:56 AM 35.1175 -94.6422 223° Southwest 185 213 6,000 50 Level Memphis Center
Fri 05:37:56 AM 35.0825 -94.6861 226° Southwest 185 213 6,100 50 Climbing Memphis Center
Fri 05:38:56 AM 35.0456 -94.7272 222° Southwest 185 213 6,100  Level Memphis Center
Fri 05:39:24 AM 35.0275 -94.7464 221° Southwest 185 213 6,100  Level Fort Center
Fri 05:40:24 AM 34.9908 -94.7831 219° Southwest 185 213 6,100 -50 Level Fort Center
Fri 05:41:24 AM 34.9542 -94.8219 221° Southwest 185 213 6,000  Descending Fort Center
Fri 05:42:24 AM 34.9233 -94.8558 222° Southwest 185 213 6,100 50 Climbing Fort Center
Fri 05:43:24 AM 34.8867 -94.8950 221° Southwest 185 213 6,100 -50 Level Fort Center
Fri 05:44:24 AM 34.8478 -94.9342 220° Southwest 179 206 6,000 -50 Descending Fort Center
Fri 05:45:24 AM 34.8111 -94.9731 221° Southwest 179 206 6,000 50 Level Fort Center
Fri 05:46:24 AM 34.7764 -95.0094 221° Southwest 179 206 6,100 50 Climbing Fort Center
Fri 05:47:24 AM 34.7436 -95.0433 220° Southwest 179 206 6,100 -50 Level Fort Center
Fri 05:48:24 AM 34.7089 -95.0794 221° Southwest 174 200 6,000  Descending Fort Center
Fri 05:49:24 AM 34.6678 -95.1211 220° Southwest 174 200 6,100 50 Climbing Fort Center
Fri 05:50:24 AM 34.6308 -95.1575 219° Southwest 179 206 6,100  Level Fort Center
Fri 05:51:24 AM 34.5919 -95.1961 219° Southwest 179 206 6,100  Level Fort Center
Fri 05:52:24 AM 34.5611 -95.2272 220° Southwest 179 206 6,100 -50 Level Fort Center
Fri 05:53:24 AM 34.5161 -95.2739 221° Southwest 179 206 6,000 -50 Descending Fort Center
Fri 05:54:24 AM 34.4811 -95.3075 218° Southwest 179 206 6,000  Level Fort Center
Fri 05:55:24 AM 34.4464 -95.3486 224° Southwest 170 196 6,000 50 Level Fort Center
Fri 05:56:24 AM 34.4094 -95.3822 217° Southwest 175 201 6,100 50 Climbing Fort Center
Fri 05:57:24 AM 34.3725 -95.4233 223° Southwest 175 201 6,100  Level Fort Center
Fri 05:58:24 AM 34.3336 -95.4619 219° Southwest 175 201 6,100 -50 Level Fort Center
Fri 05:59:24 AM 34.2986 -95.4978 220° Southwest 175 201 6,000  Descending Fort Center
Fri 06:00:24 AM 34.2617 -95.5364 221° Southwest 175 201 6,100 50 Climbing Fort Center
Fri 06:01:24 AM 34.2225 -95.5750 219° Southwest 175 201 6,100  Level Fort Center
Fri 06:02:24 AM 34.1875 -95.6108 220° Southwest 175 201 6,100 -50 Level Fort Center
Fri 06:03:24 AM 34.1567 -95.6467 224° Southwest 183 211 6,000  Descending Fort Center
Fri 06:04:24 AM 34.1136 -95.6850 216° Southwest 183 211 6,100 50 Climbing Fort Center
Fri 06:05:24 AM 34.0764 -95.7233 220° Southwest 183 211 6,100  Level Fort Center
Fri 06:06:24 AM 34.0436 -95.7667 228° Southwest 183 211 6,100  Level Fort Center
Fri 06:07:24 AM 34.0106 -95.7897 210° Southwest 183 211 6,100  Level Fort Center
Fri 06:08:24 AM 33.9694 -95.8408 226° Southwest 183 211 6,100  Level Fort Center
Fri 06:09:24 AM 33.9283 -95.8789 218° Southwest 188 216 6,100  Level Fort Center
Fri 06:10:24 AM 33.8889 -95.9122 215° Southwest 183 211 6,100  Level Fort Center
Fri 06:11:24 AM 33.8561 -95.9578 229° Southwest 183 211 6,100 -50 Level Fort Center
Fri 06:12:24 AM 33.8189 -95.9858 212° Southwest 183 211 6,000 -50 Descending Fort Center
Fri 06:13:24 AM 33.7775 -96.0317 223° Southwest 183 211 6,000  Level Fort Center
Fri 06:14:24 AM 33.7444 -96.0644 220° Southwest 183 211 6,000  Level Fort Center
Fri 06:15:24 AM 33.7033 -96.1078 221° Southwest 188 216 6,000  Level Fort Center
Fri 06:16:24 AM 33.6703 -96.1406 220° Southwest 181 208 6,000 -50 Level Fort Center
Fri 06:17:24 AM 33.6289 -96.1811 219° Southwest 181 208 5,900  Descending Fort Center
Fri 06:18:24 AM 33.5958 -96.2139 220° Southwest 181 208 6,000 50 Climbing Fort Center
Fri 06:19:24 AM 33.5544 -96.2544 219° Southwest 181 208 6,000  Level Fort Center
Fri 06:20:24 AM 33.5214 -96.2897 222° Southwest 181 208 6,000  Level Fort Center
Fri 06:21:24 AM 33.4800 -96.3300 219° Southwest 181 208 6,000 -50 Level Fort Center
Fri 06:22:24 AM 33.4469 -96.3653 222° Southwest 181 208 5,900  Descending Fort Center
Fri 06:23:24 AM 33.4033 -96.4056 218° Southwest 186 214 6,000 50 Climbing Fort Center
Fri 06:24:24 AM 33.3703 -96.4383 220° Southwest 186 214 6,000  Level Fort Center
Fri 06:25:24 AM 33.3289 -96.4811 221° Southwest 186 214 6,000  Level Fort Center
Fri 06:26:24 AM 33.2956 -96.5139 219° Southwest 186 214 6,000 -150 Level Fort Center
Fri 06:27:24 AM 33.2564 -96.5539 221° Southwest 186 214 5,700 -450 Descending Fort Center
Fri 06:28:24 AM 33.2147 -96.5964 220° Southwest 191 220 5,100 -800 Descending Fort Center
Fri 06:29:24 AM 33.1733 -96.6392 221° Southwest 196 226 4,100 -1,000 Descending Fort Center
Fri 06:30:24 AM 33.1297 -96.6817 219° Southwest 201 231 3,100 -842 Descending Fort Center
Fri 06:31:18 AM 33.1000 -96.7167 225° Southwest 188 216 2,500 -316 Descending Dallas TRACON
Fri 06:32:18 AM 33.0500 -96.7500 209° Southwest 155 178 2,500  Level Dallas TRACON
Fri 06:33:18 AM 33.0333 -96.7667 220° Southwest 146 168 2,500 -200 Level Dallas TRACON
Fri 06:34:18 AM 33.0167 -96.8167 248° West 157 181 2,100 -600 Descending Dallas TRACON
Fri 06:35:18 AM 33.0000 -96.8500 239° Southwest 132 152 1,300 -800 Descending Dallas TRACON
Fri 06:37:00 AM 32.9667 -96.8333 248° West  Level FlightAware
Fri 06:44:00 AM 32.9686 -96.8364 248° West  Level Estimated

Login

Don't have an account? Register now (free) for customized features, flight alerts, and more!